Time;durP1;ratioP1;P1;durP2;ratioP2;P2;SDS_P1;SDS_P2;PMS_P1;PMS_P2;Temp;Humidity;BMP_temperature;BMP_pressure;BME280_temperature;BME280_humidity;BME280_pressure;Samples;Min_cycle;Max_cycle;Signal;HPM_P1;HPM_P2
2021/03/06 00:00:19;;;;;;;31.70;11.80;;;;;;;15.49;58.74;100486.53;5024713;28;20053;-63
2021/03/06 00:02:45;;;;;;;23.60;11.17;;;;;;;15.49;58.71;100492.16;5020116;28;20366;-64
2021/03/06 00:05:13;;;;;;;43.67;10.90;;;;;;;15.48;58.58;100499.75;5020877;28;20042;-64
2021/03/06 00:07:40;;;;;;;39.40;12.20;;;;;;;15.52;58.49;100494.31;5025770;28;20045;-64
2021/03/06 00:10:11;;;;;;;37.80;12.70;;;;;;;15.63;57.91;100504.22;5023916;28;20072;-64
2021/03/06 00:12:39;;;;;;;39.93;13.10;;;;;;;15.71;57.51;100497.03;5026002;28;20531;-69
2021/03/06 00:15:07;;;;;;;43.13;15.03;;;;;;;15.78;57.51;100497.44;5020123;28;20508;-67
2021/03/06 00:17:34;;;;;;;31.63;10.03;;;;;;;15.78;57.30;100497.44;5023888;28;20046;-67
2021/03/06 00:20:02;;;;;;;47.13;11.47;;;;;;;15.81;57.16;100500.44;5024067;28;20064;-68
2021/03/06 00:22:29;;;;;;;35.40;12.00;;;;;;;15.82;57.18;100507.72;5022997;28;20048;-68
2021/03/06 00:24:57;;;;;;;36.13;13.03;;;;;;;15.89;56.77;100496.03;5022612;28;20049;-67
2021/03/06 00:27:23;;;;;;;41.43;12.37;;;;;;;15.92;56.82;100503.00;5024407;28;20653;-70
2021/03/06 00:29:50;;;;;;;38.30;13.10;;;;;;;15.97;56.48;100498.09;5022057;28;20055;-69
2021/03/06 00:32:16;;;;;;;35.13;13.97;;;;;;;16.05;56.31;100516.22;5023459;28;20494;-69
2021/03/06 00:34:43;;;;;;;40.53;14.27;;;;;;;16.11;55.90;100510.16;5021379;28;20074;-60
2021/03/06 00:37:12;;;;;;;44.58;13.77;;;;;;;16.15;55.78;100510.34;5025622;28;20064;-70
2021/03/06 00:39:38;;;;;;;43.23;14.07;;;;;;;16.17;55.71;100516.50;5022077;28;20419;-70
2021/03/06 00:42:05;;;;;;;34.30;13.30;;;;;;;16.17;55.66;100512.81;5029015;28;20063;-69
2021/03/06 00:44:32;;;;;;;49.83;14.73;;;;;;;16.15;55.70;100515.16;5030073;28;20072;-68
2021/03/06 00:46:58;;;;;;;42.40;14.17;;;;;;;16.09;55.70;100520.88;5023978;28;20052;-79
2021/03/06 00:49:25;;;;;;;32.33;12.33;;;;;;;16.03;55.80;100515.69;5018390;28;20044;-73
2021/03/06 00:51:51;;;;;;;39.37;13.70;;;;;;;16.03;55.74;100513.75;5026803;28;20392;-79
2021/03/06 00:54:18;;;;;;;36.70;14.70;;;;;;;16.00;55.85;100510.69;5025371;28;20037;-80
2021/03/06 00:56:45;;;;;;;41.87;14.23;;;;;;;15.95;55.88;100516.47;5024929;28;20045;-69
2021/03/06 00:59:11;;;;;;;40.47;14.63;;;;;;;15.83;55.92;100500.13;5020223;28;20509;-71
2021/03/06 01:01:37;;;;;;;39.33;13.40;;;;;;;15.86;55.99;100514.41;5024218;28;20052;-71
2021/03/06 01:04:04;;;;;;;42.53;14.23;;;;;;;15.81;56.09;100517.34;5019564;28;20038;-70
2021/03/06 01:06:31;;;;;;;35.53;13.60;;;;;;;15.82;56.12;100518.16;5017528;28;20049;-69
2021/03/06 01:08:57;;;;;;;36.53;14.13;;;;;;;15.80;55.95;100512.84;5021824;28;20497;-70
2021/03/06 01:11:23;;;;;;;37.50;14.80;;;;;;;15.81;56.04;100514.50;5027927;28;20045;-69
2021/03/06 01:13:50;;;;;;;35.40;13.60;;;;;;;15.84;55.88;100513.88;5027394;28;20426;-69
2021/03/06 01:16:16;;;;;;;36.67;14.07;;;;;;;15.85;55.95;100517.53;5025873;28;20041;-69
2021/03/06 01:18:43;;;;;;;44.87;14.77;;;;;;;15.83;55.86;100514.22;5026337;28;20692;-66
2021/03/06 01:21:09;;;;;;;41.23;14.60;;;;;;;15.84;55.88;100516.69;5025480;28;20049;-65
2021/03/06 01:23:36;;;;;;;45.83;13.20;;;;;;;15.80;55.88;100515.69;5020954;28;20037;-65
2021/03/06 01:26:02;;;;;;;39.57;12.93;;;;;;;15.76;55.89;100520.28;5027568;28;20414;-66
2021/03/06 01:28:29;;;;;;;29.60;12.20;;;;;;;15.73;55.81;100504.03;5027215;28;20041;-69
2021/03/06 01:30:56;;;;;;;44.03;13.93;;;;;;;15.79;55.57;100524.41;5026344;28;20045;-69
2021/03/06 01:33:23;;;;;;;35.70;12.67;;;;;;;15.79;55.26;100514.00;5026773;28;20410;-69
2021/03/06 01:35:49;;;;;;;36.00;10.90;;;;;;;15.76;54.94;100520.28;5026086;28;20042;-68
2021/03/06 01:38:16;;;;;;;34.07;9.63;;;;;;;15.81;54.76;100522.97;5025617;28;20057;-70
2021/03/06 01:40:42;;;;;;;33.60;12.63;;;;;;;15.75;54.90;100515.78;5022962;28;20045;-69
2021/03/06 01:43:12;;;;;;;26.37;10.43;;;;;;;15.67;54.50;100501.63;5024364;28;20605;-70
2021/03/06 01:45:39;;;;;;;30.05;10.10;;;;;;;15.82;54.07;100530.25;5023250;28;20060;-69
2021/03/06 01:48:07;;;;;;;22.67;9.23;;;;;;;15.81;53.61;100525.78;5024941;28;20042;-69
2021/03/06 01:50:42;;;;;;;22.33;8.43;;;;;;;15.81;53.33;100522.13;5029206;28;20064;-70
2021/03/06 01:53:11;;;;;;;31.70;8.07;;;;;;;15.87;52.74;100523.69;5024639;28;20141;-67
2021/03/06 01:55:41;;;;;;;17.93;8.10;;;;;;;15.82;52.55;100512.53;5025373;28;20387;-65
2021/03/06 01:58:09;;;;;;;25.40;9.27;;;;;;;15.91;52.42;100518.25;5026391;28;20045;-66
2021/03/06 02:00:35;;;;;;;25.07;7.93;;;;;;;15.96;52.17;100524.59;5026071;28;20046;-68
2021/03/06 02:03:02;;;;;;;22.87;8.27;;;;;;;15.99;51.76;100525.94;5024662;28;20046;-65
2021/03/06 02:05:31;;;;;;;24.63;8.37;;;;;;;16.01;51.69;100530.13;5028235;28;20064;-65
2021/03/06 02:07:58;;;;;;;31.10;11.43;;;;;;;15.98;51.95;100522.28;5042819;28;20484;-65
2021/03/06 02:10:31;;;;;;;25.33;10.13;;;;;;;15.93;52.08;100528.06;5027757;28;20506;-70
2021/03/06 02:13:00;;;;;;;25.23;7.47;;;;;;;15.88;51.54;100525.34;5025273;28;20136;-69
2021/03/06 02:15:30;;;;;;;;;;;;;;;15.79;51.49;100525.25;5023279;28;20050;-68
2021/03/06 02:18:02;;;;;;;15.57;6.63;;;;;;;15.84;50.90;100527.13;5027250;28;19921;-66
2021/03/06 02:20:39;;;;;;;14.07;4.47;;;;;;;15.61;50.04;100514.94;5028314;28;20152;-66
2021/03/06 02:23:27;;;;;;;14.07;5.73;;;;;;;15.74;49.63;100530.19;5024317;28;20578;-68
2021/03/06 02:26:30;;;;;;;6.17;3.63;;;;;;;15.75;49.38;100524.22;5023855;28;20425;-69
2021/03/06 02:29:32;;;;;;;24.60;5.30;;;;;;;15.64;48.66;100522.75;5025312;28;20049;-68
2021/03/06 02:32:04;;;;;;;17.07;3.00;;;;;;;15.51;48.40;100513.19;5018558;28;20060;-67
2021/03/06 02:34:34;;;;;;;13.60;5.07;;;;;;;15.39;48.47;100508.09;5027771;28;20053;-66
2021/03/06 02:37:05;;;;;;;10.60;4.00;;;;;;;15.39;48.27;100493.19;5026691;28;20060;-65
2021/03/06 02:39:34;;;;;;;18.77;5.30;;;;;;;15.53;48.31;100504.44;5024074;28;20092;-65
2021/03/06 02:42:03;;;;;;;4.57;2.73;;;;;;;14.97;48.38;100438.09;5023579;28;20050;-65
2021/03/06 02:44:32;;;;;;;12.13;3.07;;;;;;;15.28;48.23;100503.00;5025657;28;20045;-66
2021/03/06 02:46:59;;;;;;;10.27;3.73;;;;;;;15.33;47.88;100505.72;5022248;28;20498;-66
2021/03/06 02:49:26;;;;;;;9.03;3.57;;;;;;;15.36;47.68;100494.66;5024375;28;20065;-65
2021/03/06 02:51:53;;;;;;;2.50;1.50;;;;;;;15.37;47.50;100496.31;5024628;28;20076;-66
2021/03/06 02:54:19;;;;;;;6.43;2.50;;;;;;;15.34;47.35;100479.22;5028182;28;20046;-66
2021/03/06 02:56:46;;;;;;;15.10;4.13;;;;;;;15.59;47.06;100508.81;5025282;28;20063;-66
2021/03/06 02:59:18;;;;;;;10.23;3.67;;;;;;;15.43;47.00;100499.88;5027779;28;20055;-66
2021/03/06 03:01:49;;;;;;;8.43;2.07;;;;;;;15.61;46.82;100507.31;5028246;28;20050;-65
2021/03/06 03:04:35;;;;;;;6.23;3.10;;;;;;;15.54;46.79;100509.75;5031042;28;20045;-66
2021/03/06 03:07:15;;;;;;;10.70;4.40;;;;;;;15.68;46.54;100504.13;5028181;28;20201;-65
2021/03/06 03:09:45;;;;;;;10.38;3.15;;;;;;;15.51;46.50;100478.59;5028593;28;21415;-65
2021/03/06 03:12:30;;;;;;;10.43;4.40;;;;;;;15.60;46.34;100508.47;5027437;28;20058;-66
2021/03/06 03:15:02;;;;;;;9.63;3.40;;;;;;;15.67;46.36;100505.28;5030448;28;20115;-65
2021/03/06 03:17:45;;;;;;;9.20;3.13;;;;;;;15.56;46.59;100510.28;5029437;28;20152;-66
2021/03/06 03:20:44;;;;;;;16.83;4.60;;;;;;;15.49;46.62;100509.03;5026833;28;20056;-67
2021/03/06 03:23:32;;;;;;;11.47;3.43;;;;;;;15.41;46.65;100499.34;5026524;28;20045;-67
2021/03/06 03:26:07;;;;;;;6.47;3.70;;;;;;;15.34;46.64;100494.13;5028577;28;20479;-70
2021/03/06 03:28:36;;;;;;;12.73;3.23;;;;;;;15.33;46.72;100500.09;5028571;28;20046;-69
2021/03/06 03:31:04;;;;;;;11.13;3.47;;;;;;;15.30;46.71;100493.09;5027941;28;20152;-73
2021/03/06 03:33:32;;;;;;;8.30;3.80;;;;;;;15.26;46.93;100499.66;5029071;28;20045;-71
2021/03/06 03:36:02;;;;;;;9.63;3.53;;;;;;;15.19;46.83;100471.97;5030905;28;20076;-68
2021/03/06 03:38:30;;;;;;;5.77;2.47;;;;;;;15.23;46.97;100501.13;5027736;28;20053;-66
2021/03/06 03:40:58;;;;;;;5.70;3.17;;;;;;;15.17;46.92;100480.69;5028295;28;20045;-66
2021/03/06 03:43:25;;;;;;;5.37;3.50;;;;;;;15.10;47.04;100496.31;5023796;28;20128;-68
2021/03/06 03:45:53;;;;;;;6.20;2.43;;;;;;;15.13;47.15;100504.16;5029692;28;20049;-67
2021/03/06 03:48:21;;;;;;;6.53;2.40;;;;;;;15.17;47.05;100506.00;5027020;28;20118;-67
2021/03/06 03:50:48;;;;;;;13.47;4.93;;;;;;;15.28;46.67;100509.47;5029908;28;20390;-67
2021/03/06 03:53:16;;;;;;;12.77;4.00;;;;;;;15.27;46.68;100510.59;5028063;28;20494;-67
2021/03/06 03:55:43;;;;;;;11.47;3.70;;;;;;;15.30;46.53;100518.41;5026860;28;20469;-68
2021/03/06 03:58:10;;;;;;;9.67;4.47;;;;;;;15.39;46.37;100510.91;5026299;28;20038;-66
2021/03/06 04:00:36;;;;;;;10.90;3.77;;;;;;;15.36;46.15;100497.47;5027413;28;20045;-68
2021/03/06 04:03:07;;;;;;;8.63;4.10;;;;;;;15.41;46.24;100508.59;5028921;28;20049;-67
2021/03/06 04:05:34;;;;;;;9.20;3.83;;;;;;;15.39;46.21;100508.09;5030006;28;20142;-66
2021/03/06 04:08:00;;;;;;;14.13;3.33;;;;;;;15.37;46.24;100510.38;5028215;28;20128;-65
2021/03/06 04:10:28;;;;;;;4.90;3.00;;;;;;;15.37;46.19;100512.38;5026529;28;20038;-66
2021/03/06 04:12:56;;;;;;;7.33;3.60;;;;;;;15.16;46.27;100506.34;5026038;28;20050;-66
2021/03/06 04:15:23;;;;;;;6.63;3.40;;;;;;;15.30;46.07;100506.34;5029041;28;20054;-67
2021/03/06 04:17:51;;;;;;;6.83;3.30;;;;;;;15.17;46.36;100508.00;5029080;28;20041;-66
2021/03/06 04:20:21;;;;;;;8.00;2.73;;;;;;;15.13;46.34;100506.97;5026170;28;20069;-65
2021/03/06 04:22:48;;;;;;;;;;;;;;;14.91;46.55;100518.94;5028792;28;20128;-66
2021/03/06 04:25:14;;;;;;;;;;;;;;;14.89;46.52;100524.84;5025258;28;19921;-65
2021/03/06 04:27:40;;;;;;;;;;;;;;;14.87;46.65;100520.66;5025802;28;19920;-64
2021/03/06 04:30:07;;;;;;;;;;;;;;;14.69;46.89;100525.22;5026173;28;19931;-68
2021/03/06 04:32:34;;;;;;;;;;;;;;;14.63;46.96;100523.66;5028309;28;19921;-67
2021/03/06 04:35:00;;;;;;;;;;;;;;;14.61;46.92;100529.59;5028131;28;19921;-67
2021/03/06 04:37:26;;;;;;;;;;;;;;;14.59;47.11;100531.84;5026290;28;20439;-66
2021/03/06 04:39:53;;;;;;;;;;;;;;;14.50;47.01;100527.25;5027075;28;19931;-65
2021/03/06 04:42:19;;;;;;;;;;;;;;;14.55;47.19;100518.75;5027741;28;19929;-66
2021/03/06 04:44:45;;;;;;;;;;;;;;;14.54;47.11;100528.31;5027618;28;19932;-66
2021/03/06 04:47:11;;;;;;;;;;;;;;;14.61;46.80;100528.75;5028202;28;20004;-66
2021/03/06 04:49:38;;;;;;;;;;;;;;;14.49;46.81;100536.81;5040868;28;20425;-66
2021/03/06 04:52:04;;;;;;;;;;;;;;;14.78;46.36;100534.63;5026495;28;20326;-68
2021/03/06 04:54:31;;;;;;;;;;;;;;;14.75;46.31;100535.25;5030285;28;19944;-66
2021/03/06 04:57:07;;;;;;;;;;;;;;;14.76;46.06;100533.25;5025554;28;19921;-68
2021/03/06 04:59:34;;;;;;;;;;;;;;;14.70;46.03;100532.53;5025139;28;19931;-66
2021/03/06 05:02:00;;;;;;;;;;;;;;;14.73;45.81;100526.28;5026484;28;19975;-66
2021/03/06 05:04:26;;;;;;;;;;;;;;;14.75;45.75;100529.63;5027966;28;19929;-67
2021/03/06 05:06:52;;;;;;;;;;;;;;;14.69;45.58;100536.47;5026876;28;19921;-67
2021/03/06 05:09:21;;;;;;;;;;;;;;;14.60;45.56;100529.91;5029147;28;19921;-71
2021/03/06 05:11:47;;;;;;;;;;;;;;;14.32;45.80;100531.75;5025413;28;19943;-68
2021/03/06 05:14:13;;;;;;;;;;;;;;;14.34;45.91;100527.50;5027884;28;19921;-70
2021/03/06 05:16:40;;;;;;;;;;;;;;;14.36;45.76;100533.66;5027416;28;19925;-66
2021/03/06 05:19:06;;;;;;;;;;;;;;;14.51;45.51;100532.56;5026022;28;20019;-66
2021/03/06 05:21:33;;;;;;;;;;;;;;;14.46;45.58;100546.66;5025922;28;20293;-70
2021/03/06 05:23:59;;;;;;;;;;;;;;;14.35;45.59;100540.38;5024557;28;19927;-68
2021/03/06 05:26:25;;;;;;;;;;;;;;;14.41;45.46;100547.59;5025068;28;19929;-68
2021/03/06 05:28:51;;;;;;;;;;;;;;;14.34;45.06;100555.59;5026224;28;20024;-67
2021/03/06 05:31:18;;;;;;;;;;;;;;;14.39;45.09;100549.03;5028835;28;19928;-67
2021/03/06 05:33:44;;;;;;;;;;;;;;;14.51;44.78;100557.03;5027832;28;19924;-68
2021/03/06 05:36:10;;;;;;;;;;;;;;;14.48;44.84;100564.06;5021543;28;19932;-68
2021/03/06 05:38:37;;;;;;;;;;;;;;;14.37;44.84;100566.22;5025402;28;19936;-66
2021/03/06 05:41:03;;;;;;;;;;;;;;;14.44;44.52;100569.47;5027856;28;19921;-67
2021/03/06 05:43:29;;;;;;;;;;;;;;;14.46;44.53;100566.34;5024191;28;19932;-66
2021/03/06 05:45:56;;;;;;;;;;;;;;;14.38;44.54;100569.84;5027558;28;20392;-67
2021/03/06 05:48:22;;;;;;;;;;;;;;;14.65;44.25;100574.78;5027988;28;19921;-68
2021/03/06 05:50:50;;;;;;;;;;;;;;;14.37;44.18;100576.63;5024733;28;19935;-74
2021/03/06 05:53:19;;;;;;;;;;;;;;;14.62;44.16;100573.41;5025459;28;19925;-74
2021/03/06 05:55:48;;;;;;;;;;;;;;;14.63;44.11;100571.44;5024613;28;20392;-74
2021/03/06 05:58:15;;;;;;;;;;;;;;;14.52;44.07;100569.94;5026392;28;19925;-74
2021/03/06 06:00:42;;;;;;;;;;;;;;;14.41;44.55;100575.69;5026274;28;19928;-78
2021/03/06 06:03:09;;;;;;;;;;;;;;;14.39;44.34;100572.38;5028311;28;20012;-62
2021/03/06 06:05:36;;;;;;;;;;;;;;;14.32;44.71;100571.06;5027385;28;19951;-68
2021/03/06 06:08:03;;;;;;;;;;;;;;;14.36;44.73;100578.59;5028319;28;19920;-65
2021/03/06 06:10:31;;;;;;;;;;;;;;;14.28;44.73;100581.25;5022534;28;19951;-73
2021/03/06 06:12:58;;;;;;;;;;;;;;;14.21;44.81;100590.88;5028436;28;19921;-71
2021/03/06 06:15:24;;;;;;;;;;;;;;;14.44;44.51;100589.13;5024452;28;20289;-65
2021/03/06 06:17:50;;;;;;;;;;;;;;;14.65;44.05;100597.25;5027272;28;19921;-65
2021/03/06 06:20:17;;;;;;;;;;;;;;;14.87;43.69;100594.63;5025638;28;19967;-70
2021/03/06 06:22:43;;;;;;;;;;;;;;;14.81;43.79;100600.66;5024926;28;20337;-60
2021/03/06 06:25:10;;;;;;;;;;;;;;;14.91;43.56;100601.31;5026162;28;20396;-69
2021/03/06 06:27:36;;;;;;;;;;;;;;;14.51;43.99;100596.38;5018248;28;20458;-65
2021/03/06 06:30:12;;;;;;;;;;;;;;;14.33;44.32;100593.25;5023165;28;19927;-63
2021/03/06 06:32:45;;;;;;;;;;;;;;;14.15;44.59;100602.50;5025026;28;19951;-64
2021/03/06 06:35:13;;;;;;;;;;;;;;;14.14;44.73;100604.47;5029600;28;19975;-63
2021/03/06 06:37:40;;;;;;;;;;;;;;;14.23;44.54;100601.84;5029847;28;20373;-63
2021/03/06 06:40:19;;;;;;;;;;;;;;;14.32;44.46;100607.59;5029261;28;19927;-63
2021/03/06 06:42:45;;;;;;;;;;;;;;;14.19;44.74;100606.41;5028396;28;20010;-62
2021/03/06 06:45:12;;;;;;;;;;;;;;;14.11;44.75;100593.03;5031631;28;19921;-62
2021/03/06 06:47:42;;;;;;;;;;;;;;;13.88;45.32;100606.84;5031038;28;19928;-67
2021/03/06 06:50:09;;;;;;;;;;;;;;;13.47;45.31;100544.81;5028122;28;20374;-65
2021/03/06 06:52:39;;;;;;;;;;;;;;;13.87;45.34;100605.13;5029653;28;19931;-65
2021/03/06 06:55:07;;;;;;;;;;;;;;;13.71;45.71;100610.13;5028650;28;19936;-65
2021/03/06 06:57:34;;;;;;;;;;;;;;;13.59;45.97;100608.88;5028934;28;19925;-63
2021/03/06 07:00:03;;;;;;;;;;;;;;;13.48;46.10;100614.63;5027203;28;19921;-63
2021/03/06 07:02:29;;;;;;;;;;;;;;;13.49;46.27;100621.91;5028954;28;20297;-60
2021/03/06 07:04:56;;;;;;;;;;;;;;;13.51;46.14;100616.00;5031557;28;19925;-61
2021/03/06 07:07:24;;;;;;;;;;;;;;;13.43;46.23;100623.09;5030653;28;19925;-65
2021/03/06 07:09:57;;;;;;;;;;;;;;;13.47;46.15;100624.19;5030439;28;19921;-62
2021/03/06 07:12:24;;;;;;;;;;;;;;;13.54;45.89;100611.75;5026199;28;19927;-61
2021/03/06 07:14:51;;;;;;;;;;;;;;;13.49;45.74;100624.69;5028421;28;19921;-60
2021/03/06 07:17:17;;;;;;;;;;;;;;;13.55;45.79;100605.00;5025787;28;19925;-66
2021/03/06 07:19:44;;;;;;;;;;;;;;;13.42;45.92;100615.81;5026522;28;19932;-66
2021/03/06 07:22:12;;;;;;;;;;;;;;;13.53;45.87;100616.53;5029080;28;19932;-63
2021/03/06 07:24:39;;;;;;;;;;;;;;;13.49;45.58;100615.44;5030568;28;19921;-66
2021/03/06 07:27:06;;;;;;;;;;;;;;;13.54;45.74;100618.22;5031023;28;20036;-64
2021/03/06 07:29:32;;;;;;;;;;;;;;;13.73;45.26;100627.50;5028445;28;19925;-59
2021/03/06 07:31:59;;;;;;;;;;;;;;;13.92;45.02;100623.91;5027445;28;20011;-59
2021/03/06 07:34:27;;;;;;;;;;;;;;;14.05;44.71;100633.53;5024836;28;20042;-60
2021/03/06 07:36:58;;;;;;;;;;;;;;;14.03;44.79;100633.03;5027606;28;19931;-59
2021/03/06 07:39:26;;;;;;;;;;;;;;;13.99;44.72;100630.81;5025532;28;19979;-60
2021/03/06 07:41:58;;;;;;;;;;;;;;;14.01;44.76;100632.47;5027861;28;19931;-60
2021/03/06 07:44:25;;;;;;;;;;;;;;;14.09;44.70;100646.69;5025300;28;20195;-59
2021/03/06 07:46:53;;;;;;;;;;;;;;;14.23;44.39;100646.78;5021031;28;20055;-59
2021/03/06 07:49:23;;;;;;;;;;;;;;;14.28;44.00;100657.94;5026712;28;19931;-59
2021/03/06 07:51:50;;;;;;;;;;;;;;;14.54;43.61;100655.63;5027238;28;19927;-59
2021/03/06 07:54:17;;;;;;;;;;;;;;;14.68;43.33;100658.50;5025306;28;20020;-59
2021/03/06 07:56:43;;;;;;;;;;;;;;;15.01;42.80;100650.06;5027508;28;20268;-60
2021/03/06 07:59:43;;;;;;;;;;;;;;;15.09;42.40;100663.44;5025404;28;19925;-58
2021/03/06 08:02:28;;;;;;;;;;;;;;;15.17;42.27;100660.72;5014377;28;19951;-59
2021/03/06 08:04:54;;;;;;;;;;;;;;;15.29;42.09;100654.63;5028679;28;19955;-59
2021/03/06 08:07:35;;;;;;;;;;;;;;;15.40;41.47;100666.50;5028970;28;20015;-58
2021/03/06 08:10:02;;;;;;;;;;;;;;;15.61;41.36;100667.78;5023472;28;19922;-59
2021/03/06 08:12:30;;;;;;;;;;;;;;;15.67;40.89;100677.00;5029753;28;20385;-59
2021/03/06 08:14:56;;;;;;;;;;;;;;;15.88;40.77;100663.34;5026848;28;20449;-59
2021/03/06 08:17:32;;;;;;;;;;;;;;;15.98;40.49;100663.13;5029557;28;19924;-60
2021/03/06 08:19:59;;;;;;;;;;;;;;;16.03;39.95;100664.97;5028046;28;20445;-59
2021/03/06 08:22:26;;;;;;;;;;;;;;;16.16;39.75;100674.59;5026214;28;19952;-60
2021/03/06 08:24:52;;;;;;;;;;;;;;;16.41;39.47;100667.53;5026385;28;19925;-59
2021/03/06 08:27:18;;;;;;;;;;;;;;;16.71;38.89;100682.91;5029054;28;19921;-59
2021/03/06 08:29:50;;;;;;;;;;;;;;;16.83;38.84;100679.56;5024544;28;19928;-59
2021/03/06 08:32:30;;;;;;;;;;;;;;;16.97;38.68;100672.69;5027030;28;19921;-59
2021/03/06 08:35:00;;;;;;;;;;;;;;;17.05;38.43;100686.00;5028181;28;20330;-60
2021/03/06 08:37:26;;;;;;;;;;;;;;;17.08;38.50;100690.19;5028920;28;19935;-61
2021/03/06 08:39:53;;;;;;;;;;;;;;;17.28;38.01;100686.00;5029753;28;19925;-60
2021/03/06 08:42:26;;;;;;;;;;;;;;;17.92;37.78;100685.69;5027402;28;19925;-61
2021/03/06 08:44:57;;;;;;;;;;;;;;;17.96;37.08;100698.84;5025000;28;19958;-59
2021/03/06 08:47:28;;;;;;;;;;;;;;;18.18;36.91;100711.19;5026043;28;19929;-60
2021/03/06 08:49:58;;;;;;;;;;;;;;;18.43;36.40;100690.66;5026452;28;20334;-60
2021/03/06 08:52:26;;;;;;;;;;;;;;;18.48;36.04;100703.78;5027254;28;20289;-59
2021/03/06 08:54:53;;;;;;;;;;;;;;;18.49;35.98;100705.44;5020474;28;19925;-59
2021/03/06 08:57:40;;;;;;;;;;;;;;;18.45;35.97;100701.63;5025119;28;20408;-58
2021/03/06 09:00:09;;;;;;;;;;;;;;;18.74;35.82;100688.91;5029516;28;19920;-60
2021/03/06 09:02:39;;;;;;;;;;;;;;;19.23;35.64;100690.34;5029745;28;19925;-59
2021/03/06 09:05:25;;;;;;;;;;;;;;;19.76;34.87;100703.25;5029827;28;19932;-59
2021/03/06 09:07:55;;;;;;;;;;;;;;;20.02;34.27;100700.28;5029394;28;19925;-60
2021/03/06 09:10:24;;;;;;;;;;;;;;;20.40;33.93;100693.72;5030468;28;20042;-60
2021/03/06 09:12:52;;;;;;;;;;;;;;;20.20;33.30;100709.50;5030063;28;19921;-61
2021/03/06 09:15:37;;;;;;;;;;;;;;;20.27;33.44;100709.84;5029929;28;19921;-59
2021/03/06 09:18:05;;;;;;;;;;;;;;;19.96;33.21;100707.28;5029109;28;20289;-60
2021/03/06 09:20:32;;;;;;;;;;;;;;;19.72;33.48;100712.72;5029910;28;19979;-60
2021/03/06 09:22:59;;;;;;;;;;;;;;;19.80;33.58;100707.06;5030039;28;20278;-59
2021/03/06 09:25:36;;;;;;;;;;;;;;;19.75;33.39;100709.22;5030435;28;20278;-60
2021/03/06 09:28:03;;;;;;;;;;;;;;;20.08;33.30;100703.75;5029926;28;19921;-60
2021/03/06 09:30:36;;;;;;;;;;;;;;;20.17;32.52;100713.06;5027121;28;19924;-60
2021/03/06 09:33:04;;;;;;;;;;;;;;;20.14;32.74;100708.06;5028665;28;19921;-59
2021/03/06 09:35:31;;;;;;;;;;;;;;;19.79;32.96;100724.38;5029690;28;20294;-61
2021/03/06 09:38:05;;;;;;;;;;;;;;;20.21;33.13;100705.53;5029549;28;19931;-59
2021/03/06 09:40:36;;;;;;;;;;;;;;;20.40;32.31;100710.75;5018304;28;20288;-60
2021/03/06 09:43:31;;;;;;;;;;;;;;;20.41;32.47;100706.75;5028825;28;20071;-60
2021/03/06 09:45:58;;;;;;;;;;;;;;;20.59;32.26;100694.13;5026530;28;19931;-59
2021/03/06 09:48:25;;;;;;;;;;;;;;;20.46;32.14;100709.38;5028698;28;20004;-59
2021/03/06 09:50:54;;;;;;;;;;;;;;;20.12;32.29;100714.06;5028224;28;19925;-60
2021/03/06 09:53:22;;;;;;;;;;;;;;;19.93;32.48;100704.31;5029848;28;19925;-60
2021/03/06 09:56:01;;;;;;;;;;;;;;;19.72;32.98;100690.06;5028768;28;20404;-61
2021/03/06 09:58:28;;;;;;;;;;;;;;;19.72;33.22;100712.72;5025532;28;20275;-60
2021/03/06 10:00:54;;;;;;;;;;;;;;;19.96;32.99;100707.28;5029229;28;20392;-60
2021/03/06 10:03:28;;;;;;;;;;;;;;;20.03;32.90;100701.97;5029186;28;19990;-60
2021/03/06 10:05:56;;;;;;;;;;;;;;;19.88;32.68;100714.69;5029209;28;19943;-60
2021/03/06 10:08:23;;;;;;;;;;;;;;;19.79;33.14;100713.03;5031915;28;19927;-60
2021/03/06 10:10:49;;;;;;;;;;;;;;;19.74;33.00;100708.41;5034660;28;20317;-60
2021/03/06 10:13:18;;;;;;;;;;;;;;;19.96;33.13;100712.13;5032881;28;20325;-61
2021/03/06 10:15:44;;;;;;;;;;;;;;;20.00;33.04;100696.97;5033630;28;19974;-60
2021/03/06 10:18:10;;;;;;;;;;;;;;;20.02;33.09;100700.28;5032805;28;19921;-60
2021/03/06 10:20:37;;;;;;;;;;;;;;;19.98;32.90;100699.28;5032610;28;19972;-59
2021/03/06 10:23:03;;;;;;;;;;;;;;;20.29;32.69;100698.13;5032564;28;20335;-59
2021/03/06 10:25:29;;;;;;;;;;;;;;;20.30;32.60;100686.44;5031743;28;20372;-60
2021/03/06 10:27:55;;;;;;;;;;;;;;;20.59;32.24;100691.28;5031800;28;19921;-60
2021/03/06 10:30:25;;;;;;;;;;;;;;;20.63;32.17;100701.94;5033001;28;19943;-59
2021/03/06 10:32:53;;;;;;;;;;;;;;;21.00;32.27;100698.13;5032960;28;19931;-60
2021/03/06 10:35:38;;;;;;;;;;;;;;;21.02;31.81;100681.56;5031844;28;19920;-60
2021/03/06 10:38:05;;;;;;;;;;;;;;;21.56;31.61;100694.94;5029798;28;19920;-59
2021/03/06 10:40:50;;;;;;;;;;;;;;;22.17;31.34;100705.56;5031471;28;20024;-60
2021/03/06 10:43:28;;;;;;;;;;;;;;;22.53;30.26;100701.88;5031580;28;19932;-60
2021/03/06 10:45:54;;;;;;;;;;;;;;;22.43;30.08;100705.22;5031799;28;19929;-59
2021/03/06 10:48:29;;;;;;;;;;;;;;;22.35;30.02;100706.97;5030945;28;20447;-60
2021/03/06 10:50:57;;;;;;;;;;;;;;;22.17;30.11;100694.19;5026107;28;19971;-59
2021/03/06 10:53:23;;;;;;;;;;;;;;;22.84;30.28;100689.84;5026364;28;19927;-59
2021/03/06 10:55:50;;;;;;;;;;;;;;;22.99;29.75;100644.72;5025248;28;19927;-62
2021/03/06 10:58:18;;;;;;;;;;;;;;;23.42;29.47;100696.03;5025810;28;19924;-60
2021/03/06 11:00:45;;;;;;;;;;;;;;;23.49;29.20;100688.88;5026441;28;20378;-59
2021/03/06 11:03:13;;;;;;;;;;;;;;;23.33;29.20;100691.69;5028506;28;19921;-60
2021/03/06 11:05:40;;;;;;;;;;;;;;;23.39;29.35;100690.22;5027835;28;19921;-60
2021/03/06 11:08:11;;;;;;;;;;;;;;;24.06;29.38;100681.84;5027102;28;20279;-60
2021/03/06 11:10:38;;;;;;;;;;;;;;;24.26;28.55;100683.56;5028539;28;19960;-59
2021/03/06 11:13:05;;;;;;;;;;;;;;;24.41;28.66;100679.06;5025933;28;19939;-60
2021/03/06 11:15:31;;;;;;;;;;;;;;;24.28;27.92;100681.19;5026295;28;19935;-59
2021/03/06 11:17:58;;;;;;;;;;;;;;;24.24;27.86;100682.28;5030179;28;19921;-59
2021/03/06 11:20:29;;;;;;;;;;;;;;;24.34;27.90;100679.69;5026117;28;19925;-60
2021/03/06 11:23:00;;;;;;;;;;;;;;;24.99;28.16;100682.00;5025571;28;20368;-60
2021/03/06 11:25:26;;;;;;;;;;;;;;;24.98;26.68;100679.50;5025717;28;20278;-60
2021/03/06 11:27:58;;;;;;;;;;;;;;;25.17;26.35;100667.28;5027651;28;19928;-59
2021/03/06 11:30:26;;;;;;;;;;;;;;;26.21;25.36;100673.69;5027175;28;19921;-59
2021/03/06 11:32:52;;;;;;;;;;;;;;;26.22;25.35;100669.66;5030682;28;20362;-60
2021/03/06 11:35:20;;;;;;;;;;;;;;;26.13;25.25;100665.41;5026360;28;19925;-59
2021/03/06 11:37:47;;;;;;;;;;;;;;;25.94;26.13;100666.31;5028190;28;20015;-58
2021/03/06 11:40:17;;;;;;;;;;;;;;;25.99;25.96;100663.13;5027699;28;19969;-60
2021/03/06 11:42:44;;;;;;;;;;;;;;;25.84;25.64;100682.06;5029265;28;19928;-59
2021/03/06 11:45:11;;;;;;;;;;;;;;;26.28;25.63;100672.16;5026526;28;19937;-59
2021/03/06 11:47:38;;;;;;;;;;;;;;;26.43;25.40;100685.50;5027531;28;19933;-60
2021/03/06 11:50:06;;;;;;;;;;;;;;;26.94;25.82;100665.00;5026738;28;19925;-59
2021/03/06 11:52:32;;;;;;;;;;;;;;;27.40;25.04;100682.75;5024290;28;19936;-59
2021/03/06 11:54:58;;;;;;;;;;;;;;;27.24;24.42;100669.88;5026796;28;19964;-60
2021/03/06 11:57:25;;;;;;;;;;;;;;;27.92;24.47;100674.28;5027989;28;19921;-60
2021/03/06 11:59:52;;;;;;;;;;;;;;;28.98;24.20;100682.03;5028762;28;20004;-60
2021/03/06 12:02:19;;;;;;;;;;;;;;;29.70;23.80;100676.56;5023519;28;19951;-60
2021/03/06 12:04:46;;;;;;;;;;;;;;;30.53;23.67;100683.16;5025466;28;20390;-58
2021/03/06 12:07:12;;;;;;;;;;;;;;;31.03;22.67;100680.19;5026990;28;20031;-58
2021/03/06 12:09:38;;;;;;;;;;;;;;;31.39;22.92;100681.69;5026367;28;19925;-59
2021/03/06 12:12:05;;;;;;;;;;;;;;;31.56;21.80;100674.19;5024582;28;19983;-58
2021/03/06 12:14:31;;;;;;;;;;;;;;;32.08;21.96;100667.63;5025611;28;19921;-58